createdAt,value
2024-01-05T00:10:31.838Z,99.90
2024-01-05T00:31:09.250Z,43.30
2024-01-05T00:54:42.401Z,24.50
2024-01-05T00:57:51.935Z,34.20
2024-01-05T01:00:58.834Z,32.30
2024-01-05T01:04:03.322Z,54.50
2024-01-05T01:14:12.653Z,35.80
2024-01-05T01:18:08.106Z,42.50
2024-01-05T01:25:04.851Z,25.60
2024-01-05T01:28:15.973Z,47.00
2024-01-05T01:31:19.195Z,38.30
2024-01-05T01:34:28.900Z,20.90
2024-01-05T01:41:32.996Z,21.50
2024-01-05T01:48:23.386Z,31.60
2024-01-05T01:54:40.581Z,22.20
2024-01-05T01:57:43.698Z,28.20
2024-01-05T02:00:46.197Z,22.40
2024-01-05T02:07:18.574Z,13.40
2024-01-05T02:10:22.138Z,1.60
2024-01-05T02:13:24.456Z,1.90
2024-01-05T02:19:43.176Z,1.00
2024-01-05T02:22:49.344Z,5.00
2024-01-05T02:25:52.541Z,1.00
2024-01-05T02:28:57.053Z,29.30
2024-01-05T02:32:18.760Z,90.60
2024-01-05T02:38:23.635Z,1.00
2024-01-05T02:41:26.120Z,1.00
2024-01-05T02:47:52.180Z,1.00
2024-01-05T02:50:54.709Z,1.00
2024-01-05T02:53:57.018Z,1.00
2024-01-05T02:56:59.832Z,1.00
2024-01-05T03:00:02.339Z,1.00
2024-01-05T03:03:09.968Z,1.00
2024-01-05T03:06:12.711Z,1.00
2024-01-05T03:09:15.395Z,1.00
2024-01-05T03:12:18.243Z,1.00
2024-01-05T03:15:26.150Z,1.00
2024-01-05T03:21:52.237Z,15.80
2024-01-05T03:24:54.634Z,12.20
2024-01-05T03:27:56.829Z,15.10
2024-01-05T03:30:59.388Z,28.30
2024-01-05T03:34:02.120Z,20.80
2024-01-05T03:37:04.677Z,23.90
2024-01-05T03:40:09.879Z,29.10
2024-01-05T03:43:12.389Z,31.10
2024-01-05T03:46:14.760Z,33.20
2024-01-05T03:49:17.660Z,35.40
2024-01-05T03:55:38.077Z,41.80
2024-01-05T03:58:40.381Z,56.40
2024-01-05T04:01:50.112Z,45.90
2024-01-05T04:04:52.657Z,50.80
2024-01-05T04:07:55.201Z,47.50
2024-01-05T04:10:58.701Z,49.60
2024-01-05T04:14:01.501Z,58.50
2024-01-05T04:17:09.867Z,62.30
2024-01-05T04:20:13.261Z,59.30
2024-01-05T04:23:16.101Z,73.30
2024-01-05T04:26:20.067Z,69.70
2024-01-05T04:29:24.950Z,64.60
2024-01-05T04:32:32.888Z,57.30
2024-01-05T04:35:46.312Z,64.60
2024-01-05T04:38:48.999Z,69.80
2024-01-05T04:41:53.742Z,68.50
2024-01-05T04:44:59.488Z,71.70
2024-01-05T04:48:06.315Z,90.80
2024-01-05T04:51:11.390Z,95.00
2024-01-05T04:54:14.690Z,99.90
2024-01-05T04:57:18.592Z,99.90
2024-01-05T05:00:21.987Z,99.90
2024-01-05T05:03:42.942Z,98.70
2024-01-05T05:07:10.667Z,99.90
2024-01-05T05:13:37.773Z,95.70
2024-01-05T05:23:56.407Z,93.40
2024-01-05T05:27:13.862Z,95.30
2024-01-05T05:40:08.986Z,99.60
2024-01-05T05:43:14.776Z,97.70
2024-01-05T05:46:21.288Z,94.20
2024-01-05T05:49:30.064Z,90.20
2024-01-05T05:52:50.035Z,84.40
2024-01-05T05:55:53.849Z,95.50
2024-01-05T05:58:57.310Z,97.70
2024-01-05T06:02:00.749Z,96.80
2024-01-05T06:29:27.734Z,99.90
2024-01-05T06:36:03.716Z,99.90
2024-01-05T06:39:12.366Z,99.90
2024-01-05T06:49:21.379Z,99.90
2024-01-05T06:52:27.461Z,99.90
2024-01-05T06:55:41.519Z,99.90
2024-01-05T07:09:10.210Z,99.90
2024-01-05T07:12:13.133Z,99.90
2024-01-05T07:15:19.518Z,99.90
2024-01-05T07:32:29.614Z,99.90
2024-01-05T07:35:32.643Z,99.90
2024-01-05T07:41:46.170Z,99.90
2024-01-05T07:44:48.951Z,99.20
2024-01-05T07:47:52.713Z,96.90
2024-01-05T07:50:55.494Z,96.80
2024-01-05T07:53:57.985Z,96.80
2024-01-05T07:57:00.407Z,95.50
2024-01-05T08:00:03.149Z,97.00
2024-01-05T08:03:07.119Z,98.30
2024-01-05T08:06:14.772Z,96.50
2024-01-05T08:09:17.360Z,92.60
2024-01-05T08:12:20.058Z,76.70
2024-01-05T08:15:23.544Z,77.60
2024-01-05T08:18:26.086Z,77.10
2024-01-05T08:21:28.338Z,83.50
2024-01-05T08:24:30.767Z,60.40
2024-01-05T08:27:33.156Z,58.90
2024-01-05T08:30:35.592Z,57.40
2024-01-05T08:33:38.074Z,52.10
2024-01-05T08:36:41.380Z,52.10
2024-01-05T08:40:09.849Z,44.50
2024-01-05T08:43:15.212Z,54.10
2024-01-05T08:46:17.426Z,55.50
2024-01-05T08:49:19.717Z,42.10
2024-01-05T08:52:22.143Z,35.40
2024-01-05T08:55:24.609Z,57.20
2024-01-05T08:58:28.379Z,43.30
2024-01-05T09:01:31.366Z,32.70
2024-01-05T09:04:35.998Z,36.80
2024-01-05T09:07:39.452Z,32.60
2024-01-05T09:10:42.074Z,24.50
2024-01-05T09:13:44.428Z,23.20
2024-01-05T09:16:47.486Z,26.10
2024-01-05T09:19:49.823Z,26.70
2024-01-05T09:22:52.038Z,25.70
2024-01-05T09:25:54.810Z,22.90
2024-01-05T09:28:57.441Z,27.00
2024-01-05T09:32:01.558Z,29.00
2024-01-05T09:35:06.007Z,20.30
2024-01-05T09:38:14.069Z,16.40
2024-01-05T09:41:16.870Z,14.50
2024-01-05T09:44:19.398Z,20.70
2024-01-05T09:47:21.921Z,19.30
2024-01-05T09:50:24.562Z,7.70
2024-01-05T09:53:28.555Z,20.80
2024-01-05T09:56:31.026Z,7.50
2024-01-05T09:59:35.670Z,6.60
2024-01-05T10:02:46.539Z,16.00
2024-01-05T10:06:01.976Z,9.60
2024-01-05T10:09:04.887Z,16.00
2024-01-05T10:12:16.548Z,1.00
2024-01-05T10:15:20.906Z,1.00
2024-01-05T10:18:27.465Z,1.00
2024-01-05T10:21:30.476Z,1.00
2024-01-05T10:24:33.577Z,1.00
2024-01-05T10:38:10.056Z,1.00
2024-01-05T10:41:13.980Z,1.00
2024-01-05T17:15:36.317Z,9.10
2024-01-05T17:18:46.421Z,6.00
2024-01-05T17:21:53.425Z,12.70
2024-01-05T17:24:55.831Z,9.30
2024-01-05T17:28:02.539Z,6.10
2024-01-05T17:31:05.308Z,11.80
2024-01-05T17:34:18.596Z,9.60
2024-01-05T17:37:22.299Z,4.40
2024-01-05T17:40:26.016Z,4.20
2024-01-05T17:43:28.442Z,5.00
2024-01-05T17:46:30.819Z,8.40
2024-01-05T17:49:36.440Z,9.30
2024-01-05T17:52:42.346Z,11.60
2024-01-05T17:55:48.401Z,13.00
2024-01-05T17:58:51.650Z,14.30
2024-01-05T18:01:53.987Z,15.00
2024-01-05T18:04:56.550Z,14.60
2024-01-05T18:08:00.819Z,5.50
2024-01-05T18:11:03.326Z,14.70
2024-01-05T18:14:11.085Z,9.60
2024-01-05T18:17:19.961Z,5.00
2024-01-05T18:20:23.962Z,10.90
2024-01-05T18:23:29.759Z,7.20
2024-01-05T18:26:42.965Z,13.80
2024-01-05T18:29:45.492Z,13.30
2024-01-05T18:32:48.012Z,9.10
2024-01-05T18:35:50.418Z,6.00
2024-01-05T18:38:52.834Z,6.80
2024-01-05T18:41:58.918Z,9.20
2024-01-05T18:45:07.072Z,9.00
2024-01-05T18:48:09.946Z,3.40
2024-01-05T18:51:21.611Z,6.30
2024-01-05T18:54:25.695Z,10.90
2024-01-05T18:57:28.890Z,6.50
2024-01-05T19:00:33.524Z,7.90
2024-01-05T19:03:36.151Z,6.30
2024-01-05T19:06:46.943Z,4.00
2024-01-05T19:09:49.585Z,5.00
2024-01-05T19:12:54.906Z,4.00
2024-01-05T19:15:57.905Z,4.80
2024-01-05T19:19:00.618Z,6.50
2024-01-05T19:22:03.134Z,1.00
2024-01-05T19:25:05.922Z,3.20
2024-01-05T19:28:08.489Z,3.80
2024-01-05T19:31:11.083Z,4.00
2024-01-05T19:34:13.736Z,4.40
2024-01-05T19:37:16.425Z,1.00
2024-01-05T19:40:18.987Z,8.00
2024-01-05T19:43:21.450Z,7.00
2024-01-05T19:46:23.855Z,6.30
2024-01-05T19:49:26.875Z,7.30
2024-01-05T19:52:29.371Z,8.90
2024-01-05T19:55:40.704Z,16.90
2024-01-05T19:58:49.242Z,10.10
2024-01-05T20:01:57.851Z,16.80
2024-01-05T20:05:02.545Z,13.20
2024-01-05T20:08:05.148Z,15.60
2024-01-05T20:11:09.365Z,16.20
2024-01-05T20:14:14.871Z,16.70
2024-01-05T20:17:17.307Z,12.30
2024-01-05T20:20:20.412Z,15.00
2024-01-05T20:23:22.789Z,14.60
2024-01-05T20:26:28.425Z,15.90
2024-01-05T20:29:32.144Z,18.60
2024-01-05T20:32:35.325Z,10.00
2024-01-05T20:35:56.920Z,11.80
2024-01-05T20:39:01.030Z,11.40
2024-01-05T20:55:47.814Z,11.50
2024-01-05T20:58:50.354Z,14.40
2024-01-05T21:01:52.985Z,13.80
2024-01-05T21:04:55.327Z,15.90
2024-01-05T21:07:58.762Z,14.00
2024-01-05T21:11:01.267Z,10.60
2024-01-05T21:14:03.782Z,11.00
2024-01-05T21:17:06.350Z,14.20
2024-01-05T21:20:12.207Z,10.60
2024-01-05T21:23:15.441Z,14.40
2024-01-05T21:26:19.301Z,13.30
2024-01-05T21:29:21.599Z,8.10
2024-01-05T21:32:25.642Z,13.70
2024-01-05T21:35:28.548Z,9.70
2024-01-05T21:38:32.176Z,6.90
2024-01-05T21:41:34.574Z,5.40
2024-01-05T21:44:37.553Z,3.80
2024-01-05T21:47:40.088Z,1.00
2024-01-05T21:50:50.110Z,3.00
2024-01-05T21:53:52.515Z,1.00
2024-01-05T21:57:01.453Z,1.00
2024-01-05T22:00:04.014Z,1.50
2024-01-05T22:03:07.952Z,5.50
2024-01-05T22:06:10.611Z,1.50
2024-01-05T22:09:13.504Z,7.60
2024-01-05T22:12:16.374Z,8.00
2024-01-05T22:15:18.882Z,5.90
2024-01-05T22:18:21.185Z,3.70
2024-01-05T22:21:23.786Z,2.50
2024-01-05T22:24:26.791Z,1.40
2024-01-05T22:27:29.429Z,1.00
2024-01-05T22:30:34.365Z,3.70
2024-01-05T22:33:37.221Z,1.70
2024-01-05T22:36:39.602Z,3.80
2024-01-05T22:39:42.324Z,4.50
2024-01-05T22:42:44.996Z,5.10
2024-01-05T22:45:48.163Z,1.00
2024-01-05T22:48:50.932Z,1.00
2024-01-05T22:51:55.446Z,1.00
2024-01-05T22:54:57.710Z,4.20
2024-01-05T22:58:00.280Z,1.00
2024-01-05T23:01:02.530Z,6.70
2024-01-05T23:04:05.054Z,1.30
2024-01-05T23:07:07.545Z,3.90
2024-01-05T23:10:10.918Z,10.90
2024-01-05T23:13:13.274Z,3.30
2024-01-05T23:16:17.126Z,1.20
2024-01-05T23:19:19.523Z,5.90
2024-01-05T23:22:22.048Z,8.60
2024-01-05T23:25:24.457Z,16.90
2024-01-05T23:28:26.733Z,14.60
2024-01-05T23:31:29.355Z,11.80
2024-01-05T23:34:31.769Z,8.40
2024-01-05T23:37:34.207Z,16.00
2024-01-05T23:40:36.520Z,12.20
2024-01-05T23:43:38.680Z,14.60
2024-01-05T23:46:41.286Z,17.50
2024-01-05T23:49:43.823Z,16.40
2024-01-05T23:52:46.292Z,14.40
2024-01-05T23:55:49.277Z,19.30
2024-01-05T23:58:51.917Z,24.40
